createdAt,value
2022-10-01T00:02:11.804Z,100563.63
2022-10-01T00:04:39.970Z,100565.31
2022-10-01T00:07:10.969Z,100551.91
2022-10-01T00:09:39.355Z,100553.75
2022-10-01T00:12:09.062Z,100545.72
2022-10-01T00:14:39.473Z,100538.50
2022-10-01T00:17:07.409Z,100541.19
2022-10-01T00:19:35.408Z,100535.09
2022-10-01T00:22:03.401Z,100534.22
2022-10-01T00:24:31.312Z,100535.94
2022-10-01T00:27:00.532Z,100535.69
2022-10-01T00:29:29.782Z,100533.75
2022-10-01T00:31:58.041Z,100531.91
2022-10-01T00:34:26.906Z,100530.81
2022-10-01T00:36:54.822Z,100539.72
2022-10-01T00:39:23.670Z,100525.31
2022-10-01T00:41:52.645Z,100530.56
2022-10-01T00:44:36.347Z,100524.97
2022-10-01T00:47:10.554Z,100523.25
2022-10-01T00:49:40.987Z,100515.19
2022-10-01T00:52:13.867Z,100519.47
2022-10-01T00:54:45.825Z,100523.84
2022-10-01T00:57:18.088Z,100517.50
2022-10-01T00:59:48.714Z,100518.34
2022-10-01T01:02:16.802Z,100522.00
2022-10-01T01:04:44.891Z,100511.28
2022-10-01T01:07:13.777Z,100511.16
2022-10-01T01:09:45.899Z,100512.84
2022-10-01T01:12:34.691Z,100505.66
2022-10-01T01:15:15.185Z,100503.97
2022-10-01T01:17:54.541Z,100503.97
2022-10-01T01:20:44.113Z,100477.56
2022-10-01T01:23:27.224Z,100501.53
2022-10-01T01:26:03.569Z,100496.91
2022-10-01T01:28:36.044Z,100491.41
2022-10-01T01:31:08.618Z,100484.22
2022-10-01T01:33:40.023Z,100487.88
2022-10-01T01:36:12.313Z,100477.97
2022-10-01T01:38:46.335Z,100477.16
2022-10-01T01:41:16.281Z,100478.97
2022-10-01T01:43:48.246Z,100480.81
2022-10-01T01:46:17.893Z,100478.97
2022-10-01T01:48:49.217Z,100476.41
2022-10-01T01:51:24.276Z,100469.38
2022-10-01T01:53:52.433Z,100474.84
2022-10-01T01:56:20.429Z,100467.78
2022-10-01T01:58:49.749Z,100464.97
2022-10-01T02:01:39.400Z,100455.59
2022-10-01T02:04:11.832Z,100429.34
2022-10-01T02:06:57.297Z,100453.78
2022-10-01T02:09:31.130Z,100459.13
2022-10-01T02:12:10.198Z,100458.28
2022-10-01T02:14:49.316Z,100459.13
2022-10-01T02:17:23.745Z,100447.69
2022-10-01T02:19:57.703Z,100446.72
2022-10-01T02:22:33.309Z,100447.53
2022-10-01T02:25:05.240Z,100441.00
2022-10-01T02:27:39.491Z,100448.16
2022-10-01T02:30:10.907Z,100449.72
2022-10-01T02:32:41.068Z,100452.28
2022-10-01T02:35:12.443Z,100451.31
2022-10-01T02:37:44.338Z,100448.47
2022-10-01T02:40:16.206Z,100451.06
2022-10-01T02:42:48.152Z,100450.44
2022-10-01T02:45:22.795Z,100453.50
2022-10-01T02:47:55.751Z,100449.94
2022-10-01T02:50:25.828Z,100450.81
2022-10-01T02:52:59.933Z,100447.13
2022-10-01T02:55:31.906Z,100431.09
2022-10-01T02:57:58.885Z,100448.84
2022-10-01T03:00:29.404Z,100443.34
2022-10-01T03:02:57.523Z,100443.34
2022-10-01T03:05:26.115Z,100441.50
2022-10-01T03:07:54.121Z,100438.72
2022-10-01T03:10:22.459Z,100428.09
2022-10-01T03:12:51.025Z,100438.56
2022-10-01T03:15:20.342Z,100445.66
2022-10-01T03:17:52.049Z,100439.19
2022-10-01T03:20:20.037Z,100446.47
2022-10-01T03:22:48.753Z,100440.53
2022-10-01T03:25:17.123Z,100447.34
2022-10-01T03:27:46.476Z,100455.28
2022-10-01T03:30:14.940Z,100447.22
2022-10-01T03:32:42.810Z,100441.97
2022-10-01T03:35:12.279Z,100442.81
2022-10-01T03:37:40.135Z,100440.16
2022-10-01T03:40:09.054Z,100442.81
2022-10-01T03:42:36.918Z,100438.31
2022-10-01T03:45:05.413Z,100442.81
2022-10-01T03:47:33.289Z,100444.53
2022-10-01T03:50:01.157Z,100443.69
2022-10-01T03:52:30.409Z,100433.91
2022-10-01T03:54:58.261Z,100437.47
2022-10-01T03:57:26.142Z,100433.91
2022-10-01T03:59:53.992Z,100434.78
2022-10-01T04:02:22.049Z,100431.94
2022-10-01T04:04:50.019Z,100424.91
2022-10-01T04:07:17.898Z,100430.28
2022-10-01T04:09:47.133Z,100361.94
2022-10-01T04:12:14.968Z,100424.91
2022-10-01T04:14:42.953Z,100426.59
2022-10-01T04:17:10.824Z,100429.28
2022-10-01T04:19:38.872Z,100421.38
2022-10-01T04:22:06.766Z,100427.59
2022-10-01T04:24:34.652Z,100421.38
2022-10-01T04:27:03.921Z,100425.03
2022-10-01T04:29:31.793Z,100420.75
2022-10-01T04:31:59.667Z,100423.44
2022-10-01T04:34:47.625Z,100414.69
2022-10-01T04:37:15.628Z,100416.50
2022-10-01T04:39:43.483Z,100419.09
2022-10-01T04:42:13.516Z,100417.38
2022-10-01T04:44:41.650Z,100418.22
2022-10-01T04:47:10.042Z,100409.47
2022-10-01T04:49:38.017Z,100414.81
2022-10-01T04:52:06.337Z,100420.19
2022-10-01T04:54:34.211Z,100419.34
2022-10-01T04:57:02.111Z,100351.84
2022-10-01T04:59:31.969Z,100419.94
2022-10-01T05:02:00.050Z,100418.94
2022-10-01T05:04:28.337Z,100418.09
2022-10-01T05:06:56.352Z,100419.78
2022-10-01T05:09:24.321Z,100407.25
2022-10-01T05:11:52.632Z,100407.25
2022-10-01T05:14:21.313Z,100408.09
2022-10-01T05:16:50.577Z,100412.34
2022-10-01T05:19:18.448Z,100420.50
2022-10-01T05:21:46.364Z,100425.88
2022-10-01T05:24:15.569Z,100425.03
2022-10-01T05:26:43.450Z,100413.97
2022-10-01T05:29:11.330Z,100429.56
2022-10-01T05:31:42.016Z,100427.69
2022-10-01T05:34:11.467Z,100432.25
2022-10-01T05:36:39.396Z,100426.03
2022-10-01T05:39:07.368Z,100417.13
2022-10-01T05:41:35.430Z,100427.00
2022-10-01T05:44:04.044Z,100429.66
2022-10-01T05:46:33.105Z,100425.31
2022-10-01T05:49:01.092Z,100407.69
2022-10-01T05:51:30.396Z,100430.06
2022-10-01T05:54:01.229Z,100424.69
2022-10-01T05:56:29.129Z,100430.06
2022-10-01T05:58:57.481Z,100421.31
2022-10-01T06:01:25.452Z,100421.41
2022-10-01T06:03:54.105Z,100414.72
2022-10-01T06:06:23.267Z,100424.34
2022-10-01T06:08:52.592Z,100420.94
2022-10-01T06:11:22.582Z,100418.41
2022-10-01T06:13:50.955Z,100412.69
2022-10-01T06:16:19.287Z,100408.06
2022-10-01T06:18:48.773Z,100407.22
2022-10-01T06:21:16.706Z,100402.97
2022-10-01T06:23:44.972Z,100404.78
2022-10-01T06:26:14.251Z,100396.03
2022-10-01T06:28:42.092Z,100398.72
2022-10-01T06:31:10.331Z,100395.16
2022-10-01T06:33:38.248Z,100393.44
2022-10-01T06:36:06.277Z,100388.34
2022-10-01T06:38:34.247Z,100400.63
2022-10-01T06:41:03.988Z,100395.41
2022-10-01T06:43:34.432Z,100389.44
2022-10-01T06:46:03.868Z,100388.47
2022-10-01T06:48:32.960Z,100397.38
2022-10-01T06:51:01.034Z,100391.16
2022-10-01T06:53:29.576Z,100392.03
2022-10-01T06:55:57.543Z,100390.91
2022-10-01T06:58:27.309Z,100390.66
2022-10-01T07:01:01.542Z,100393.91
2022-10-01T07:03:31.154Z,100385.06
2022-10-01T07:06:03.909Z,100374.03
2022-10-01T07:08:33.202Z,100377.56
2022-10-01T07:11:03.490Z,100371.25
2022-10-01T07:13:31.745Z,100373.78
2022-10-01T07:16:03.277Z,100371.81
2022-10-01T07:18:31.200Z,100363.78
2022-10-01T07:20:59.129Z,100366.34
2022-10-01T07:23:27.049Z,100367.91
2022-10-01T07:25:55.220Z,100356.72
2022-10-01T07:28:25.730Z,100367.47
2022-10-01T07:31:01.833Z,100374.84
2022-10-01T07:33:30.150Z,100374.84
2022-10-01T07:36:01.480Z,100374.59
2022-10-01T07:38:29.422Z,100370.09
2022-10-01T07:40:58.989Z,100363.72
2022-10-01T07:43:26.908Z,100363.59
2022-10-01T07:45:58.036Z,100365.28
2022-10-01T07:48:27.933Z,100355.41
2022-10-01T07:50:57.808Z,100358.09
2022-10-01T07:53:25.993Z,100358.25
2022-10-01T07:55:53.856Z,100355.69
2022-10-01T07:58:24.096Z,100352.03
2022-10-01T08:00:56.042Z,100356.97
2022-10-01T08:03:24.227Z,100340.59
2022-10-01T08:05:54.661Z,100335.47
2022-10-01T08:08:22.647Z,100352.25
2022-10-01T08:10:50.669Z,100349.44
2022-10-01T08:13:19.019Z,100333.50
2022-10-01T08:15:50.022Z,100343.94
2022-10-01T08:18:17.913Z,100335.91
2022-10-01T08:20:45.912Z,100357.06
2022-10-01T08:23:17.320Z,100346.22
2022-10-01T08:25:47.935Z,100347.09
2022-10-01T08:28:16.394Z,100337.19
2022-10-01T08:30:44.361Z,100336.22
2022-10-01T08:33:14.301Z,100308.97
2022-10-01T08:35:43.589Z,100337.78
2022-10-01T08:38:13.290Z,100338.63
2022-10-01T08:40:46.599Z,100333.97
2022-10-01T08:43:29.922Z,100336.66
2022-10-01T08:46:01.011Z,100335.69
2022-10-01T08:48:50.032Z,100332.84
2022-10-01T08:51:26.693Z,100331.19
2022-10-01T08:53:59.186Z,100328.50
2022-10-01T08:56:31.950Z,100324.81
2022-10-01T08:59:03.700Z,100326.53
2022-10-01T09:01:32.947Z,100330.06
2022-10-01T09:04:01.425Z,100327.22
2022-10-01T09:06:30.183Z,100324.28
2022-10-01T09:09:11.231Z,100325.84
2022-10-01T09:11:52.653Z,100315.97
2022-10-01T09:14:31.843Z,100323.88
2022-10-01T09:17:10.866Z,100315.56
2022-10-01T09:19:54.478Z,100321.03
2022-10-01T09:22:32.794Z,100321.78
2022-10-01T09:25:08.132Z,100324.31
2022-10-01T09:27:39.512Z,100300.69
2022-10-01T09:30:12.852Z,100310.78
2022-10-01T09:32:45.827Z,100308.66
2022-10-01T09:35:26.801Z,100313.19
2022-10-01T09:37:58.355Z,100314.88
2022-10-01T09:40:35.560Z,100315.59
2022-10-01T09:43:08.152Z,100252.88
2022-10-01T09:45:38.139Z,100299.50
2022-10-01T09:48:18.229Z,100303.75
2022-10-01T09:50:58.212Z,100299.38
2022-10-01T09:53:33.819Z,100304.84
2022-10-01T09:56:09.561Z,100316.59
2022-10-01T09:58:42.124Z,100300.59
2022-10-01T10:01:21.976Z,100298.78
2022-10-01T10:03:57.938Z,100308.66
2022-10-01T10:06:29.599Z,100314.88
2022-10-01T10:08:59.620Z,100306.84
2022-10-01T10:11:29.782Z,100304.16
2022-10-01T10:14:01.217Z,100305.00
2022-10-01T10:16:32.845Z,100305.88
2022-10-01T10:19:04.847Z,100297.66
2022-10-01T10:21:35.115Z,100300.78
2022-10-01T10:24:05.271Z,100295.41
2022-10-01T10:26:35.324Z,100297.41
2022-10-01T10:29:07.277Z,100259.50
2022-10-01T10:31:42.005Z,100296.88
2022-10-01T10:34:17.421Z,100290.41
2022-10-01T10:36:47.349Z,100289.53
2022-10-01T10:39:22.797Z,100283.03
2022-10-01T10:41:52.305Z,100274.13
2022-10-01T10:44:25.148Z,100272.88
2022-10-01T10:46:55.046Z,100262.84
2022-10-01T10:49:26.310Z,100243.19
2022-10-01T10:51:55.481Z,100265.97
2022-10-01T10:54:26.842Z,100243.63
2022-10-01T10:57:02.445Z,100255.00
2022-10-01T10:59:34.138Z,100257.53
2022-10-01T11:02:05.391Z,100266.31
2022-10-01T11:04:42.747Z,100250.91
2022-10-01T11:07:13.376Z,100254.56
2022-10-01T11:10:12.062Z,100256.13
2022-10-01T11:13:02.250Z,100254.28
2022-10-01T11:15:43.297Z,100254.13
2022-10-01T11:18:26.056Z,100254.88
2022-10-01T11:21:08.773Z,100252.19
2022-10-01T11:24:02.921Z,100253.75
2022-10-01T11:26:39.058Z,100248.75
2022-10-01T11:29:19.546Z,100228.56
2022-10-01T11:31:58.992Z,100245.53
2022-10-01T11:34:50.281Z,100249.06
2022-10-01T11:37:35.187Z,100245.41
2022-10-01T11:40:14.220Z,100243.69
2022-10-01T11:42:45.028Z,100235.66
2022-10-01T11:45:19.529Z,100226.59
2022-10-01T11:47:52.742Z,100224.75
2022-10-01T11:50:25.249Z,100232.81
2022-10-01T11:52:58.914Z,100226.72
2022-10-01T11:55:50.181Z,100223.19
2022-10-01T11:58:48.074Z,100219.69
2022-10-01T12:01:25.030Z,100224.31
2022-10-01T12:04:04.418Z,100219.69
2022-10-01T12:06:38.723Z,100196.06
2022-10-01T12:09:14.117Z,100217.97
2022-10-01T12:11:49.361Z,100212.59
2022-10-01T12:14:21.213Z,100202.81
2022-10-01T12:16:53.423Z,100199.28
2022-10-01T12:19:26.186Z,100197.44
2022-10-01T12:22:00.647Z,100200.13
2022-10-01T12:24:31.871Z,100193.22
2022-10-01T12:27:15.412Z,100191.22
2022-10-01T12:29:51.834Z,100195.78
2022-10-01T12:32:31.879Z,100194.06
2022-10-01T12:35:14.008Z,100183.31
2022-10-01T12:38:00.882Z,100194.34
2022-10-01T12:40:38.341Z,100195.03
2022-10-01T12:43:29.895Z,100188.13
2022-10-01T12:46:04.515Z,100189.97
2022-10-01T12:48:38.829Z,100183.75
2022-10-01T12:51:28.229Z,100189.81
2022-10-01T12:54:12.710Z,100197.72
2022-10-01T12:56:47.386Z,100186.00
2022-10-01T12:59:52.379Z,100181.50
2022-10-01T13:02:35.848Z,100188.69
2022-10-01T13:05:20.165Z,100187.72
2022-10-01T13:08:01.985Z,100192.09
2022-10-01T13:10:47.262Z,100188.41
2022-10-01T13:13:19.026Z,100161.22
2022-10-01T13:15:50.161Z,100190.13
2022-10-01T13:18:30.007Z,100185.72
2022-10-01T13:21:07.447Z,100195.50
2022-10-01T13:23:44.965Z,100186.59
2022-10-01T13:26:18.349Z,100181.06
2022-10-01T13:29:21.645Z,100178.38
2022-10-01T13:31:56.890Z,100179.66
2022-10-01T13:34:39.426Z,100181.22
2022-10-01T13:37:14.625Z,100176.53
2022-10-01T13:39:44.453Z,100178.38
2022-10-01T13:42:22.468Z,100174.72
2022-10-01T13:44:56.587Z,100170.31
2022-10-01T13:47:26.134Z,100167.63
2022-10-01T13:49:57.136Z,100153.78
2022-10-01T13:52:25.291Z,100164.94
2022-10-01T13:54:57.118Z,100162.94
2022-10-01T13:57:35.298Z,100171.16
2022-10-01T14:00:21.225Z,100167.78
2022-10-01T14:03:02.218Z,100163.25
2022-10-01T14:05:35.972Z,100158.72
2022-10-01T14:08:17.028Z,100157.88
2022-10-01T14:11:13.526Z,100149.94
2022-10-01T14:14:05.480Z,100153.63
2022-10-01T14:16:38.588Z,100140.19
2022-10-01T14:19:06.489Z,100153.94
2022-10-01T14:21:47.055Z,100155.59
2022-10-01T14:24:26.024Z,100160.13
2022-10-01T14:26:58.732Z,100154.06
2022-10-01T14:29:41.885Z,100154.91
2022-10-01T14:32:23.363Z,100162.97
2022-10-01T14:35:19.338Z,100156.88
2022-10-01T14:37:47.708Z,100152.22
2022-10-01T14:40:19.348Z,100152.66
2022-10-01T14:42:59.922Z,100156.19
2022-10-01T14:45:28.682Z,100152.94
2022-10-01T14:48:03.267Z,100150.25
2022-10-01T14:50:33.597Z,100150.94
2022-10-01T14:53:01.658Z,100146.28
2022-10-01T14:55:30.677Z,100144.31
2022-10-01T14:58:00.056Z,100140.63
2022-10-01T15:00:30.630Z,100142.31
2022-10-01T15:03:10.129Z,100133.84
2022-10-01T15:05:38.576Z,100141.06
2022-10-01T15:08:13.411Z,100151.09
2022-10-01T15:10:42.645Z,100147.69
2022-10-01T15:13:18.747Z,100120.00
2022-10-01T15:15:46.854Z,100140.63
2022-10-01T15:18:17.823Z,100144.16
2022-10-01T15:20:54.490Z,100136.97
2022-10-01T15:23:23.724Z,100137.38
2022-10-01T15:25:52.125Z,100136.38
2022-10-01T15:28:32.017Z,100132.84
2022-10-01T15:31:02.263Z,100131.28
2022-10-01T15:33:31.957Z,100124.25
2022-10-01T15:36:02.601Z,100116.00
2022-10-01T15:38:32.588Z,100129.72
2022-10-01T15:41:26.770Z,100125.63
2022-10-01T15:43:52.132Z,100123.91
2022-10-01T15:46:29.319Z,100129.16
2022-10-01T15:49:20.655Z,100123.91
2022-10-01T15:52:11.741Z,100127.59
2022-10-01T15:54:42.897Z,100123.63
2022-10-01T15:57:16.868Z,100127.88
2022-10-01T15:59:47.193Z,100123.75
2022-10-01T16:02:21.043Z,100123.34
2022-10-01T16:04:49.326Z,100125.47
2022-10-01T16:07:22.661Z,100123.47
2022-10-01T16:09:56.920Z,100127.47
2022-10-01T16:12:27.445Z,100113.19
2022-10-01T16:15:00.626Z,100112.44
2022-10-01T16:17:38.131Z,100113.88
2022-10-01T16:20:35.824Z,100120.81
2022-10-01T16:23:41.615Z,100121.78
2022-10-01T16:26:33.507Z,100123.75
2022-10-01T16:29:03.854Z,100121.34
2022-10-01T16:31:33.923Z,100119.66
2022-10-01T16:34:01.800Z,100113.56
2022-10-01T16:36:29.791Z,100115.69
2022-10-01T16:38:57.956Z,100114.56
2022-10-01T16:41:27.962Z,100117.53
2022-10-01T16:43:59.214Z,100119.50
2022-10-01T16:46:27.369Z,100109.03
2022-10-01T16:48:56.736Z,100116.25
2022-10-01T16:51:24.673Z,100115.66
2022-10-01T16:53:54.509Z,100111.28
2022-10-01T16:56:26.899Z,100113.41
2022-10-01T16:58:55.157Z,100110.47
2022-10-01T17:01:23.207Z,100110.31
2022-10-01T17:03:51.101Z,100108.22
2022-10-01T17:06:20.476Z,100103.69
2022-10-01T17:08:48.313Z,100107.22
2022-10-01T17:11:16.359Z,100113.31
2022-10-01T17:13:44.277Z,100115.84
2022-10-01T17:16:12.329Z,100116.84
2022-10-01T17:18:40.293Z,100105.25
2022-10-01T17:21:10.250Z,100054.94
2022-10-01T17:23:39.473Z,100103.25
2022-10-01T17:26:07.700Z,100093.06
2022-10-01T17:28:36.395Z,100100.72
2022-10-01T17:31:07.613Z,100098.88
2022-10-01T17:33:35.605Z,100103.41
2022-10-01T17:36:07.427Z,100102.41
2022-10-01T17:38:35.618Z,100095.66
2022-10-01T17:41:05.315Z,100103.53
2022-10-01T17:43:33.234Z,100103.81
2022-10-01T17:46:02.442Z,100105.38
2022-10-01T17:48:30.479Z,100103.81
2022-10-01T17:51:03.481Z,100089.41
2022-10-01T17:53:38.211Z,100096.50
2022-10-01T17:56:13.520Z,100095.75
2022-10-01T17:58:45.040Z,100103.13
2022-10-01T18:01:15.941Z,100095.34
2022-10-01T18:03:44.057Z,100099.16
2022-10-01T18:06:15.354Z,100105.63
2022-10-01T18:08:58.696Z,100102.25
2022-10-01T18:11:29.585Z,100107.78
2022-10-01T18:13:57.927Z,100099.84
2022-10-01T18:16:26.894Z,100106.34
2022-10-01T18:21:48.093Z,100111.41
2022-10-01T18:24:17.055Z,100114.66
2022-10-01T18:26:46.969Z,100105.47
2022-10-01T18:29:19.785Z,100134.28
2022-10-01T18:31:51.662Z,100133.72
2022-10-01T18:34:26.065Z,100132.75
2022-10-01T18:36:59.391Z,100118.88
2022-10-01T18:39:32.694Z,100132.03
2022-10-01T18:42:10.988Z,100127.53
2022-10-01T18:44:39.013Z,100121.56
2022-10-01T18:47:19.221Z,100126.09
2022-10-01T18:50:17.218Z,100122.44
2022-10-01T18:52:54.136Z,100091.91
2022-10-01T18:56:04.384Z,100097.16
2022-10-01T18:59:05.837Z,100107.72
2022-10-01T19:01:50.330Z,100097.72
2022-10-01T19:04:34.641Z,100100.84
2022-10-01T19:07:15.701Z,100102.41
2022-10-01T19:09:55.819Z,100098.72
2022-10-01T19:12:38.711Z,100103.09
2022-10-01T19:15:19.509Z,100098.59
2022-10-01T19:17:58.448Z,100064.38
2022-10-01T19:20:50.119Z,100091.38
2022-10-01T19:23:42.893Z,100092.22
2022-10-01T19:26:19.218Z,100091.38
2022-10-01T19:29:04.258Z,100086.00
2022-10-01T19:31:41.927Z,100086.00
2022-10-01T19:34:16.265Z,100089.69
2022-10-01T19:36:50.763Z,100068.91
2022-10-01T19:39:24.075Z,100076.97
2022-10-01T19:41:57.214Z,100089.81
2022-10-01T19:44:32.835Z,99987.91
2022-10-01T19:47:23.529Z,100079.94
2022-10-01T19:49:56.578Z,100077.53
2022-10-01T19:52:26.498Z,99959.53
2022-10-01T19:54:59.307Z,99967.28
2022-10-01T19:57:28.994Z,99975.78
2022-10-01T19:59:59.610Z,100010.09
2022-10-01T20:02:35.807Z,100029.88
2022-10-01T20:05:06.990Z,99963.88
2022-10-01T20:07:46.019Z,99950.47
2022-10-01T20:10:22.089Z,100002.06
2022-10-01T20:13:02.533Z,100036.38
2022-10-01T20:15:41.986Z,99983.06
2022-10-01T20:18:24.498Z,100065.94
2022-10-01T20:21:07.248Z,100061.97
2022-10-01T20:23:42.620Z,100048.00
2022-10-01T20:26:21.594Z,100065.66
2022-10-01T20:29:10.399Z,100070.91
2022-10-01T20:31:47.286Z,100033.53
2022-10-01T20:34:24.801Z,100067.38
2022-10-01T20:37:02.108Z,100046.19
2022-10-01T20:39:33.417Z,100065.53
2022-10-01T20:42:02.042Z,100062.69
2022-10-01T20:44:34.439Z,100054.81
2022-10-01T20:47:07.403Z,100048.44
2022-10-01T20:49:41.371Z,100052.56
2022-10-01T20:52:18.378Z,100059.16
2022-10-01T20:54:51.918Z,100051.69
2022-10-01T20:57:29.050Z,100028.09
2022-10-01T21:00:02.768Z,100053.81
2022-10-01T21:02:35.810Z,100046.91
2022-10-01T21:05:08.668Z,100058.59
2022-10-01T21:07:43.318Z,100063.84
2022-10-01T21:10:22.150Z,100064.56
2022-10-01T21:12:59.473Z,100010.59
2022-10-01T21:15:37.094Z,100040.13
2022-10-01T21:18:12.806Z,100057.78
2022-10-01T21:20:52.140Z,100052.25
2022-10-01T21:23:32.501Z,100049.28
2022-10-01T21:26:11.985Z,100047.31
2022-10-01T21:29:00.758Z,100050.72
2022-10-01T21:31:41.615Z,100042.50
2022-10-01T21:34:14.437Z,100050.44
2022-10-01T21:36:57.826Z,100015.97
2022-10-01T21:39:32.965Z,100042.81
2022-10-01T21:42:15.029Z,100041.66
2022-10-01T21:45:16.669Z,100039.53
2022-10-01T21:48:00.646Z,100039.44
2022-10-01T21:50:42.655Z,100045.66
2022-10-01T21:53:40.545Z,100040.97
2022-10-01T21:56:20.845Z,100039.97
2022-10-01T21:59:01.420Z,100045.06
2022-10-01T22:01:46.310Z,100035.88
2022-10-01T22:04:20.146Z,100026.69
2022-10-01T22:06:54.306Z,99999.84
2022-10-01T22:09:35.697Z,100037.97
2022-10-01T22:12:07.115Z,100030.91
2022-10-01T22:14:35.148Z,100028.22
2022-10-01T22:17:09.632Z,100028.63
2022-10-01T22:19:40.201Z,100032.16
2022-10-01T22:22:12.289Z,100040.09
2022-10-01T22:24:47.429Z,100016.78
2022-10-01T22:27:21.230Z,100031.31
2022-10-01T22:29:54.011Z,100028.78
2022-10-01T22:32:26.761Z,100032.31
2022-10-01T22:35:00.253Z,100024.69
2022-10-01T22:37:34.618Z,100038.69
2022-10-01T22:40:10.057Z,100035.13
2022-10-01T22:42:43.904Z,100024.13
2022-10-01T22:45:15.424Z,100027.38
2022-10-01T22:48:04.752Z,100028.63
2022-10-01T22:50:51.053Z,99971.72
2022-10-01T22:53:35.786Z,100030.03
2022-10-01T22:56:05.093Z,100023.66
2022-10-01T22:59:00.814Z,100024.22
2022-10-01T23:01:41.267Z,100027.78
2022-10-01T23:04:21.170Z,100024.06
2022-10-01T23:06:56.740Z,100028.63
2022-10-01T23:09:35.800Z,100031.16
2022-10-01T23:12:12.181Z,100031.16
2022-10-01T23:15:02.053Z,100020.84
2022-10-01T23:17:36.344Z,100028.75
2022-10-01T23:20:28.769Z,100030.16
2022-10-01T23:23:25.588Z,100026.22
2022-10-01T23:26:14.523Z,100029.44
2022-10-01T23:29:00.819Z,100025.94
2022-10-01T23:31:36.645Z,100030.47
2022-10-01T23:34:25.707Z,100032.28
2022-10-01T23:37:03.194Z,100028.63
2022-10-01T23:39:51.121Z,100029.59
2022-10-01T23:42:31.421Z,100029.59
2022-10-01T23:45:20.011Z,100031.44
2022-10-01T23:47:56.257Z,100033.44
2022-10-01T23:50:31.906Z,99966.75
2022-10-01T23:53:08.598Z,100026.22
2022-10-01T23:56:04.083Z,100027.19
2022-10-01T23:58:40.226Z,100024.69
